createdAt,value
2023-04-02T00:00:18.540Z,96168.58
2023-04-02T00:03:09.481Z,96168.02
2023-04-02T00:05:51.188Z,96166.45
2023-04-02T00:08:27.437Z,96168.20
2023-04-02T00:10:59.878Z,96170.56
2023-04-02T00:13:35.498Z,96173.34
2023-04-02T00:16:08.981Z,96170.34
2023-04-02T00:18:43.240Z,96169.86
2023-04-02T00:21:20.324Z,96166.96
2023-04-02T00:23:49.258Z,96169.54
2023-04-02T00:26:32.164Z,96169.44
2023-04-02T00:29:03.927Z,96166.14
2023-04-02T00:31:35.199Z,96170.58
2023-04-02T00:34:07.816Z,96166.34
2023-04-02T00:36:38.645Z,96162.35
2023-04-02T00:39:13.645Z,96169.13
2023-04-02T00:41:46.862Z,96164.45
2023-04-02T00:44:21.734Z,96162.48
2023-04-02T00:46:53.557Z,96162.31
2023-04-02T00:49:27.888Z,96164.55
2023-04-02T00:52:01.651Z,96160.02
2023-04-02T00:54:37.987Z,96162.64
2023-04-02T00:57:17.531Z,96159.88
2023-04-02T00:59:56.928Z,96155.52
2023-04-02T01:02:30.609Z,96152.74
2023-04-02T01:05:02.858Z,96154.95
2023-04-02T01:07:47.928Z,96152.01
2023-04-02T01:10:43.011Z,96155.61
2023-04-02T01:13:23.838Z,96149.52
2023-04-02T01:15:58.457Z,96154.30
2023-04-02T01:18:46.082Z,96150.21
2023-04-02T01:21:21.969Z,96151.88
2023-04-02T01:24:01.905Z,96157.84
2023-04-02T01:26:50.962Z,96152.83
2023-04-02T01:29:22.333Z,96153.01
2023-04-02T01:31:53.677Z,96154.38
2023-04-02T01:34:27.334Z,96149.30
2023-04-02T01:37:07.402Z,96144.97
2023-04-02T01:39:46.886Z,96149.91
2023-04-02T01:42:21.679Z,96149.91
2023-04-02T01:44:53.006Z,96154.36
2023-04-02T01:47:25.534Z,96151.61
2023-04-02T01:49:59.054Z,96151.85
2023-04-02T01:52:39.089Z,96150.72
2023-04-02T01:55:12.848Z,96147.90
2023-04-02T01:57:44.705Z,96154.72
2023-04-02T02:00:18.832Z,96149.09
2023-04-02T02:02:51.582Z,96147.09
2023-04-02T02:05:24.003Z,96149.25
2023-04-02T02:07:56.391Z,96153.63
2023-04-02T02:10:29.889Z,96153.08
2023-04-02T02:13:00.922Z,96151.18
2023-04-02T02:15:34.452Z,96158.13
2023-04-02T02:18:06.867Z,96156.59
2023-04-02T02:20:37.969Z,96154.80
2023-04-02T02:23:10.384Z,96157.02
2023-04-02T02:25:42.206Z,96155.29
2023-04-02T02:28:16.502Z,96159.23
2023-04-02T02:30:48.114Z,96158.94
2023-04-02T02:33:22.459Z,96162.83
2023-04-02T02:35:57.441Z,96156.45
2023-04-02T02:38:51.843Z,96155.75
2023-04-02T02:41:29.192Z,96148.92
2023-04-02T02:44:03.087Z,96147.19
2023-04-02T02:46:34.554Z,96152.33
2023-04-02T02:49:05.950Z,96151.09
2023-04-02T02:51:43.062Z,96140.90
2023-04-02T02:54:13.778Z,96147.15
2023-04-02T02:56:48.043Z,96146.42
2023-04-02T02:59:19.308Z,96149.90
2023-04-02T03:01:49.710Z,96148.45
2023-04-02T03:04:23.371Z,96159.54
2023-04-02T03:06:55.970Z,96151.95
2023-04-02T03:09:34.887Z,96150.84
2023-04-02T03:12:09.662Z,96150.48
2023-04-02T03:14:43.986Z,96151.69
2023-04-02T03:17:19.136Z,96146.75
2023-04-02T03:19:53.075Z,96147.91
2023-04-02T03:22:27.054Z,96147.73
2023-04-02T03:25:00.533Z,96144.29
2023-04-02T03:27:34.998Z,96151.98
2023-04-02T03:30:28.678Z,96150.77
2023-04-02T03:33:02.673Z,96145.10
2023-04-02T03:35:39.831Z,96145.69
2023-04-02T03:38:17.360Z,96150.04
2023-04-02T03:41:00.110Z,96145.75
2023-04-02T03:43:33.375Z,96141.92
2023-04-02T03:46:10.775Z,96141.19
2023-04-02T03:48:43.420Z,96140.60
2023-04-02T03:51:18.655Z,96137.98
2023-04-02T03:53:51.544Z,96139.09
2023-04-02T03:56:28.307Z,96136.96
2023-04-02T03:59:06.310Z,96133.54
2023-04-02T04:01:42.960Z,96136.06
2023-04-02T04:04:16.966Z,96141.66
2023-04-02T04:06:52.122Z,96147.77
2023-04-02T04:09:26.086Z,96148.36
2023-04-02T04:12:02.899Z,96152.79
2023-04-02T04:14:38.369Z,96153.39
2023-04-02T04:17:15.511Z,96156.86
2023-04-02T04:19:49.385Z,96157.20
2023-04-02T04:22:21.329Z,96155.35
2023-04-02T04:24:51.728Z,96165.45
2023-04-02T04:27:33.315Z,96170.90
2023-04-02T04:30:05.695Z,96170.34
2023-04-02T04:32:38.804Z,96173.56
2023-04-02T04:35:17.167Z,96172.56
2023-04-02T04:37:49.548Z,96176.40
2023-04-02T04:40:23.484Z,96178.64
2023-04-02T04:42:56.242Z,96175.71
2023-04-02T04:45:36.922Z,96176.63
2023-04-02T04:48:14.328Z,96177.13
2023-04-02T04:50:51.447Z,96174.23
2023-04-02T04:53:24.891Z,96177.06
2023-04-02T04:56:01.330Z,96174.62
2023-04-02T04:58:41.630Z,96171.64
2023-04-02T05:01:14.659Z,96173.45
2023-04-02T05:03:47.397Z,96173.69
2023-04-02T05:06:24.615Z,96178.84
2023-04-02T05:08:58.293Z,96180.23
2023-04-02T05:11:33.017Z,96175.48
2023-04-02T05:14:06.302Z,96179.28
2023-04-02T05:16:40.748Z,96179.09
2023-04-02T05:19:14.920Z,96177.28
2023-04-02T05:21:48.143Z,96181.56
2023-04-02T05:24:44.969Z,96178.40
2023-04-02T05:27:24.087Z,96179.91
2023-04-02T05:30:00.217Z,96179.58
2023-04-02T05:32:32.790Z,96181.98
2023-04-02T05:35:06.281Z,96178.92
2023-04-02T05:37:36.838Z,96178.04
2023-04-02T05:40:16.241Z,96179.31
2023-04-02T05:42:50.294Z,96182.60
2023-04-02T05:45:26.882Z,96182.50
2023-04-02T05:48:01.974Z,96186.62
2023-04-02T05:50:37.081Z,96189.01
2023-04-02T05:53:11.931Z,96190.22
2023-04-02T05:55:51.892Z,96194.40
2023-04-02T06:01:12.500Z,96185.80
2023-04-02T06:03:47.610Z,96189.23
2023-04-02T06:06:23.871Z,96190.09
2023-04-02T06:08:59.655Z,96183.95
2023-04-02T06:11:32.454Z,96185.31
2023-04-02T06:14:04.573Z,96182.86
2023-04-02T06:16:37.990Z,96180.39
2023-04-02T06:19:11.794Z,96177.67
2023-04-02T06:21:46.860Z,96178.56
2023-04-02T06:24:19.260Z,96174.99
2023-04-02T06:26:54.244Z,96172.55
2023-04-02T06:29:29.848Z,96172.80
2023-04-02T06:32:02.216Z,96172.12
2023-04-02T06:34:33.330Z,96163.54
2023-04-02T06:37:09.250Z,96165.73
2023-04-02T06:39:39.646Z,96160.81
2023-04-02T06:42:14.402Z,96159.41
2023-04-02T06:44:45.412Z,96156.55
2023-04-02T06:47:23.391Z,96155.06
2023-04-02T06:49:57.733Z,96157.48
2023-04-02T06:52:33.339Z,96157.04
2023-04-02T06:55:18.057Z,96150.32
2023-04-02T06:57:48.858Z,96150.24
2023-04-02T07:00:29.386Z,96153.16
2023-04-02T07:03:02.937Z,96149.65
2023-04-02T07:05:33.547Z,96139.12
2023-04-02T07:08:04.403Z,96131.40
2023-04-02T07:10:36.364Z,96132.20
2023-04-02T07:13:08.240Z,96132.74
2023-04-02T07:15:39.382Z,96128.61
2023-04-02T07:18:12.843Z,96132.37
2023-04-02T07:20:43.290Z,96130.14
2023-04-02T07:23:15.793Z,96135.15
2023-04-02T07:25:48.240Z,96128.34
2023-04-02T07:28:19.940Z,96121.70
2023-04-02T07:30:52.750Z,96110.66
2023-04-02T07:33:25.808Z,96105.29
2023-04-02T07:35:57.703Z,96106.25
2023-04-02T07:38:28.076Z,96102.60
2023-04-02T07:40:58.768Z,96099.84
2023-04-02T07:43:30.693Z,96096.88
2023-04-02T07:46:01.515Z,96094.80
2023-04-02T07:48:32.422Z,96091.79
2023-04-02T07:51:04.569Z,96093.21
2023-04-02T07:53:38.891Z,96102.08
2023-04-02T07:56:16.417Z,96095.17
2023-04-02T07:58:47.125Z,96090.00
2023-04-02T08:01:20.756Z,96093.44
2023-04-02T08:03:54.170Z,96094.29
2023-04-02T08:06:27.211Z,96086.06
2023-04-02T08:08:58.462Z,96081.98
2023-04-02T08:11:31.817Z,96081.30
2023-04-02T08:14:03.009Z,96084.80
2023-04-02T08:16:47.766Z,96081.38
2023-04-02T08:19:20.221Z,96079.35
2023-04-02T08:21:51.725Z,96078.83
2023-04-02T08:24:22.607Z,96075.36
2023-04-02T08:26:54.425Z,96073.79
2023-04-02T08:29:29.316Z,96072.74
2023-04-02T08:32:00.254Z,96069.79
2023-04-02T08:34:31.703Z,96062.67
2023-04-02T08:37:02.528Z,96067.98
2023-04-02T08:39:35.072Z,96068.20
2023-04-02T08:42:12.976Z,96065.91
2023-04-02T08:44:52.954Z,96054.63
2023-04-02T08:47:26.253Z,96055.55
2023-04-02T08:50:00.892Z,96059.84
2023-04-02T08:52:38.513Z,96054.10
2023-04-02T08:55:21.100Z,96049.44
2023-04-02T08:58:10.250Z,96048.73
2023-04-02T09:00:52.372Z,96044.77
2023-04-02T09:03:29.621Z,96036.63
2023-04-02T09:06:01.140Z,96035.84
2023-04-02T09:08:33.085Z,96031.10
2023-04-02T09:11:11.152Z,96026.13
2023-04-02T09:13:46.321Z,96022.57
2023-04-02T09:16:23.430Z,96022.37
2023-04-02T09:18:58.367Z,96015.52
2023-04-02T09:21:39.947Z,96017.30
2023-04-02T09:24:13.486Z,96014.19
2023-04-02T09:26:45.012Z,96010.60
2023-04-02T09:29:39.571Z,96008.79
2023-04-02T09:32:22.000Z,96014.69
2023-04-02T09:35:24.442Z,96012.36
2023-04-02T09:38:31.837Z,96003.57
2023-04-02T09:41:06.767Z,96007.20
2023-04-02T09:43:39.035Z,95999.51
2023-04-02T09:46:29.229Z,95999.91
2023-04-02T09:49:03.787Z,96004.88
2023-04-02T09:51:36.346Z,96002.42
2023-04-02T09:54:17.125Z,96000.56
2023-04-02T09:57:02.736Z,95997.86
2023-04-02T09:59:33.398Z,95993.67
2023-04-02T10:02:04.974Z,95991.96
2023-04-02T10:04:44.081Z,95987.36
2023-04-02T10:07:35.498Z,95988.16
2023-04-02T10:10:18.520Z,95984.22
2023-04-02T10:12:53.775Z,95984.24
2023-04-02T10:15:28.450Z,95982.30
2023-04-02T10:18:06.525Z,95977.90
2023-04-02T10:20:50.586Z,95978.45
2023-04-02T10:23:24.292Z,95972.97
2023-04-02T10:25:59.429Z,95971.09
2023-04-02T10:28:51.074Z,95970.23
2023-04-02T10:31:25.751Z,95965.69
2023-04-02T10:34:02.249Z,95963.92
2023-04-02T10:36:45.169Z,95962.67
2023-04-02T10:39:17.840Z,95955.85
2023-04-02T10:41:52.904Z,95954.20
2023-04-02T10:44:39.343Z,95953.46
2023-04-02T10:47:27.311Z,95951.08
2023-04-02T10:50:08.295Z,95957.46
2023-04-02T10:52:42.364Z,95957.39
2023-04-02T10:55:19.234Z,95947.86
2023-04-02T10:57:50.250Z,95949.67
2023-04-02T11:00:25.309Z,95944.52
2023-04-02T11:02:57.815Z,95942.29
2023-04-02T11:05:36.657Z,95939.20
2023-04-02T11:08:11.610Z,95944.66
2023-04-02T11:10:47.626Z,95950.60
2023-04-02T11:13:35.988Z,95946.17
2023-04-02T11:16:07.430Z,95943.77
2023-04-02T11:18:38.973Z,95929.27
2023-04-02T11:21:17.264Z,95929.44
2023-04-02T11:24:01.095Z,95936.33
2023-04-02T11:26:38.270Z,95931.27
2023-04-02T11:29:25.833Z,95935.86
2023-04-02T11:32:33.694Z,95932.77
2023-04-02T11:35:30.945Z,95938.81
2023-04-02T11:38:04.429Z,95932.35
2023-04-02T11:40:51.977Z,95922.70
2023-04-02T11:43:52.875Z,95929.86
2023-04-02T11:46:46.652Z,95947.94
2023-04-02T11:49:35.634Z,95946.73
2023-04-02T11:52:20.417Z,95942.90
2023-04-02T11:54:58.735Z,95932.86
2023-04-02T11:57:38.178Z,95940.38
2023-04-02T12:00:21.981Z,95944.73
2023-04-02T12:03:03.363Z,95940.10
2023-04-02T12:05:37.509Z,95941.46
2023-04-02T12:08:19.082Z,95935.95
2023-04-02T12:10:56.194Z,95933.59
2023-04-02T12:13:53.333Z,95942.91
2023-04-02T12:16:25.198Z,95945.09
2023-04-02T12:18:55.700Z,95948.46
2023-04-02T12:21:28.332Z,95940.92
2023-04-02T12:23:59.830Z,95936.91
2023-04-02T12:26:37.119Z,95943.86
2023-04-02T12:29:25.956Z,95949.92
2023-04-02T12:31:59.996Z,95941.86
2023-04-02T12:34:31.933Z,95957.80
2023-04-02T12:37:03.992Z,95946.38
2023-04-02T12:39:35.159Z,95959.51
2023-04-02T12:42:06.334Z,95964.52
2023-04-02T12:44:37.013Z,95959.55
2023-04-02T12:47:07.878Z,95956.30
2023-04-02T12:49:40.140Z,95955.33
2023-04-02T12:52:12.638Z,95962.56
2023-04-02T12:54:48.060Z,95955.06
2023-04-02T12:57:36.276Z,95962.23
2023-04-02T13:00:31.791Z,95951.84
2023-04-02T13:03:18.543Z,95964.63
2023-04-02T13:05:53.309Z,95967.05
2023-04-02T13:08:27.531Z,95957.59
2023-04-02T13:11:00.156Z,95967.38
2023-04-02T13:13:33.750Z,95975.59
2023-04-02T13:16:20.114Z,95975.70
2023-04-02T13:18:51.517Z,95967.08
2023-04-02T13:21:28.440Z,95966.52
2023-04-02T13:23:59.354Z,95984.35
2023-04-02T13:26:30.562Z,95984.71
2023-04-02T13:29:03.102Z,95986.36
2023-04-02T13:31:34.425Z,95987.68
2023-04-02T13:34:05.990Z,95994.44
2023-04-02T13:36:38.977Z,95985.20
2023-04-02T13:39:09.300Z,95997.64
2023-04-02T13:41:42.886Z,96009.33
2023-04-02T13:44:21.875Z,96003.09
2023-04-02T13:46:52.634Z,96001.24
2023-04-02T13:49:24.359Z,95985.39
2023-04-02T13:51:57.938Z,96001.08
2023-04-02T13:54:34.838Z,95991.78
2023-04-02T13:57:13.868Z,95984.84
2023-04-02T13:59:47.098Z,95977.17
2023-04-02T14:02:23.014Z,95988.68
2023-04-02T14:04:56.653Z,95988.85
2023-04-02T14:07:41.352Z,95989.59
2023-04-02T14:10:27.112Z,96001.08
2023-04-02T14:13:14.284Z,95993.31
2023-04-02T14:15:59.342Z,95993.46
2023-04-02T14:18:46.751Z,95983.05
2023-04-02T14:21:17.665Z,95990.48
2023-04-02T14:24:07.453Z,95993.39
2023-04-02T14:26:45.602Z,95999.09
2023-04-02T14:29:20.764Z,96006.45
2023-04-02T14:31:58.213Z,96004.64
2023-04-02T14:34:36.953Z,96007.25
2023-04-02T14:37:13.948Z,96021.93
2023-04-02T14:39:50.164Z,96013.33
2023-04-02T14:42:29.143Z,96017.52
2023-04-02T14:45:19.723Z,96016.83
2023-04-02T14:47:53.201Z,96016.05
2023-04-02T14:50:28.176Z,96017.29
2023-04-02T14:53:06.182Z,96025.54
2023-04-02T14:55:39.762Z,96032.27
2023-04-02T14:58:14.946Z,96035.92
2023-04-02T15:00:50.238Z,96032.86
2023-04-02T15:03:24.670Z,96030.04
2023-04-02T15:05:56.926Z,96037.13
2023-04-02T15:08:29.135Z,96039.18
2023-04-02T15:11:05.875Z,96044.42
2023-04-02T15:13:44.379Z,96051.35
2023-04-02T15:16:19.387Z,96046.38
2023-04-02T15:18:53.223Z,96049.27
2023-04-02T15:21:55.848Z,96054.98
2023-04-02T15:24:35.319Z,96056.45
2023-04-02T15:27:24.940Z,96050.64
2023-04-02T15:30:01.232Z,96054.66
2023-04-02T15:32:40.763Z,96061.20
2023-04-02T15:35:33.910Z,96065.11
2023-04-02T15:38:11.021Z,96073.03
2023-04-02T15:40:51.326Z,96077.02
2023-04-02T15:43:25.795Z,96082.02
2023-04-02T15:46:08.134Z,96086.83
2023-04-02T15:48:54.051Z,96098.95
2023-04-02T15:51:38.013Z,96099.83
2023-04-02T15:54:20.884Z,96111.20
2023-04-02T15:56:57.265Z,96109.40
2023-04-02T15:59:44.733Z,96112.77
2023-04-02T16:02:19.195Z,96108.88
2023-04-02T16:04:54.040Z,96122.36
2023-04-02T16:07:46.276Z,96131.08
2023-04-02T16:10:33.901Z,96131.40
2023-04-02T16:13:18.464Z,96130.02
2023-04-02T16:15:51.964Z,96134.79
2023-04-02T16:18:31.543Z,96140.22
2023-04-02T16:21:04.788Z,96148.52
2023-04-02T16:23:38.570Z,96160.89
2023-04-02T16:26:27.994Z,96164.73
2023-04-02T16:29:24.731Z,96165.09
2023-04-02T16:32:01.392Z,96170.77
2023-04-02T16:34:40.105Z,96168.59
2023-04-02T16:37:15.644Z,96168.51
2023-04-02T16:39:56.020Z,96171.98
2023-04-02T16:42:49.539Z,96183.33
2023-04-02T16:45:29.537Z,96191.09
2023-04-02T16:48:14.929Z,96198.30
2023-04-02T16:50:56.445Z,96198.21
2023-04-02T16:57:49.259Z,96203.58
2023-04-02T17:00:27.778Z,96216.41
2023-04-02T17:03:15.069Z,96215.73
2023-04-02T17:05:59.310Z,96218.05
2023-04-02T17:08:47.560Z,96225.46
2023-04-02T17:11:38.616Z,96225.99
2023-04-02T17:14:23.940Z,96229.50
2023-04-02T17:16:59.952Z,96230.74
2023-04-02T17:19:32.272Z,96232.80
2023-04-02T17:22:07.553Z,96232.68
2023-04-02T17:24:41.209Z,96230.35
2023-04-02T17:27:19.923Z,96236.73
2023-04-02T17:29:53.528Z,96245.69
2023-04-02T17:32:27.950Z,96241.92
2023-04-02T17:35:00.164Z,96238.67
2023-04-02T17:37:34.278Z,96250.02
2023-04-02T17:40:31.783Z,96254.20
2023-04-02T17:43:08.728Z,96251.02
2023-04-02T17:45:45.476Z,96254.26
2023-04-02T17:48:21.331Z,96255.84
2023-04-02T17:50:59.570Z,96255.88
2023-04-02T17:53:41.065Z,96257.70
2023-04-02T17:56:33.559Z,96264.28
2023-04-02T17:59:15.800Z,96253.95
2023-04-02T18:01:50.707Z,96244.91
2023-04-02T18:04:33.055Z,96263.38
2023-04-02T18:07:13.799Z,96259.73
2023-04-02T18:09:47.920Z,96251.91
2023-04-02T18:12:28.587Z,96260.67
2023-04-02T18:15:14.675Z,96258.25
2023-04-02T18:17:50.823Z,96275.05
2023-04-02T18:20:28.107Z,96264.70
2023-04-02T18:23:06.193Z,96259.70
2023-04-02T18:25:55.412Z,96259.95
2023-04-02T18:28:38.661Z,96259.98
2023-04-02T18:31:36.074Z,96262.86
2023-04-02T18:34:28.403Z,96249.63
2023-04-02T18:37:09.162Z,96256.67
2023-04-02T18:39:47.730Z,96264.38
2023-04-02T18:42:30.021Z,96260.34
2023-04-02T18:45:08.626Z,96260.00
2023-04-02T18:47:42.761Z,96256.36
2023-04-02T18:50:18.439Z,96255.60
2023-04-02T18:52:53.880Z,96249.17
2023-04-02T18:55:26.896Z,96249.31
2023-04-02T18:58:01.883Z,96256.50
2023-04-02T19:00:36.326Z,96259.61
2023-04-02T19:03:13.023Z,96260.77
2023-04-02T19:05:46.907Z,96257.16
2023-04-02T19:08:20.330Z,96252.23
2023-04-02T19:10:53.525Z,96252.85
2023-04-02T19:13:25.280Z,96255.52
2023-04-02T19:16:40.122Z,96260.17
2023-04-02T19:19:15.847Z,96255.00
2023-04-02T19:22:00.003Z,96260.02
2023-04-02T19:24:44.333Z,96255.25
2023-04-02T19:27:22.800Z,96262.98
2023-04-02T19:30:04.506Z,96261.54
2023-04-02T19:32:41.687Z,96265.46
2023-04-02T19:35:13.964Z,96265.49
2023-04-02T19:37:46.848Z,96271.79
2023-04-02T19:40:24.899Z,96270.72
2023-04-02T19:42:56.876Z,96271.27
2023-04-02T19:45:32.409Z,96271.98
2023-04-02T19:48:10.472Z,96273.16
2023-04-02T19:50:43.857Z,96266.80
2023-04-02T19:53:14.761Z,96270.63
2023-04-02T19:55:48.132Z,96273.59
2023-04-02T19:58:26.649Z,96274.77
2023-04-02T20:00:57.706Z,96271.52
2023-04-02T20:03:28.563Z,96276.91
2023-04-02T20:05:59.733Z,96270.70
2023-04-02T20:08:31.522Z,96273.45
2023-04-02T20:11:02.505Z,96277.70
2023-04-02T20:13:33.754Z,96278.79
2023-04-02T20:16:05.537Z,96282.13
2023-04-02T20:18:37.396Z,96281.63
2023-04-02T20:21:09.060Z,96280.52
2023-04-02T20:23:39.268Z,96278.77
2023-04-02T20:26:10.309Z,96288.34
2023-04-02T20:28:41.304Z,96292.80
2023-04-02T20:31:13.210Z,96279.32
2023-04-02T20:33:45.186Z,96280.66
2023-04-02T20:36:17.606Z,96278.87
2023-04-02T20:38:47.978Z,96283.98
2023-04-02T20:41:18.261Z,96288.15
2023-04-02T20:43:49.513Z,96277.98
2023-04-02T20:46:19.963Z,96278.52
2023-04-02T20:48:50.475Z,96280.00
2023-04-02T20:51:21.480Z,96287.22
2023-04-02T20:53:51.965Z,96291.36
2023-04-02T20:56:23.663Z,96292.52
2023-04-02T20:58:54.486Z,96290.50
2023-04-02T21:01:26.591Z,96292.11
2023-04-02T21:03:57.912Z,96293.69
2023-04-02T21:06:30.521Z,96297.89
2023-04-02T21:09:01.077Z,96299.84
2023-04-02T21:11:31.376Z,96293.05
2023-04-02T21:14:01.960Z,96295.02
2023-04-02T21:16:33.303Z,96293.22
2023-04-02T21:19:05.942Z,96292.90
2023-04-02T21:21:36.629Z,96296.09
2023-04-02T21:24:09.138Z,96303.37
2023-04-02T21:26:40.998Z,96303.38
2023-04-02T21:29:12.866Z,96298.89
2023-04-02T21:31:43.946Z,96300.56
2023-04-02T21:34:16.834Z,96303.84
2023-04-02T21:36:48.436Z,96292.37
2023-04-02T21:39:20.975Z,96296.29
2023-04-02T21:41:52.861Z,96305.86
2023-04-02T21:44:24.204Z,96307.00
2023-04-02T21:46:54.950Z,96303.33
2023-04-02T21:49:26.063Z,96307.74
2023-04-02T21:51:56.673Z,96298.53
2023-04-02T21:54:27.056Z,96294.34
2023-04-02T21:56:57.484Z,96294.90
2023-04-02T21:59:27.910Z,96303.67
2023-04-02T22:01:58.162Z,96301.43
2023-04-02T22:04:30.308Z,96306.00
2023-04-02T22:07:00.718Z,96304.60
2023-04-02T22:09:31.149Z,96310.09
2023-04-02T22:12:02.165Z,96305.90
2023-04-02T22:14:32.833Z,96304.05
2023-04-02T22:17:03.696Z,96300.02
2023-04-02T22:19:34.266Z,96302.64
2023-04-02T22:22:04.724Z,96302.65
2023-04-02T22:24:35.472Z,96303.22
2023-04-02T22:27:05.936Z,96302.48
2023-04-02T22:29:36.554Z,96298.23
2023-04-02T22:32:06.935Z,96298.95
2023-04-02T22:34:39.496Z,96292.17
2023-04-02T22:37:10.404Z,96301.23
2023-04-02T22:39:40.728Z,96294.65
2023-04-02T22:42:11.113Z,96300.54
2023-04-02T22:44:41.449Z,96294.10
2023-04-02T22:47:11.807Z,96292.33
2023-04-02T22:49:42.210Z,96289.04
2023-04-02T22:52:13.258Z,96287.84
2023-04-02T22:54:43.546Z,96283.81
2023-04-02T22:57:13.913Z,96284.84
2023-04-02T22:59:44.253Z,96291.00
2023-04-02T23:02:14.714Z,96292.05
2023-04-02T23:04:45.128Z,96304.27
2023-04-02T23:07:16.123Z,96299.71
2023-04-02T23:09:46.388Z,96293.56
2023-04-02T23:12:16.519Z,96289.34
2023-04-02T23:14:46.919Z,96294.42
2023-04-02T23:17:17.108Z,96289.15
2023-04-02T23:19:47.350Z,96281.76
2023-04-02T23:22:17.640Z,96287.39
2023-04-02T23:24:48.404Z,96271.61
2023-04-02T23:27:18.811Z,96275.61
2023-04-02T23:29:49.387Z,96272.85
2023-04-02T23:32:20.878Z,96285.96
2023-04-02T23:34:51.534Z,96273.89
2023-04-02T23:37:21.844Z,96284.72
2023-04-02T23:39:52.599Z,96283.23
2023-04-02T23:42:23.096Z,96281.55
2023-04-02T23:44:53.995Z,96281.75
2023-04-02T23:47:24.475Z,96281.59
2023-04-02T23:49:54.719Z,96282.75
2023-04-02T23:52:25.000Z,96278.84
2023-04-02T23:54:55.268Z,96281.01
2023-04-02T23:57:25.898Z,96276.47
2023-04-02T23:59:56.000Z,96264.92
